地図

経路データ

SID SEASON NUMBER BASIN SUBBASIN NAME ISO_TIME NATURE LAT LON WMO_WIND WMO_PRES WMO_AGENCY TRACK_TYPE DIST2LAND LANDFALL IFLAG USA_AGENCY USA_ATCF_ID USA_LAT USA_LON USA_RECORD USA_STATUS USA_WIND USA_PRES USA_SSHS USA_R34_NE USA_R34_SE USA_R34_SW USA_R34_NW USA_R50_NE USA_R50_SE USA_R50_SW USA_R50_NW USA_R64_NE USA_R64_SE USA_R64_SW USA_R64_NW USA_POCI USA_ROCI USA_RMW USA_EYE TOKYO_LAT TOKYO_LON TOKYO_GRADE TOKYO_WIND TOKYO_PRES TOKYO_R50_DIR TOKYO_R50_LONG TOKYO_R50_SHORT TOKYO_R30_DIR TOKYO_R30_LONG TOKYO_R30_SHORT TOKYO_LAND CMA_LAT CMA_LON CMA_CAT CMA_WIND CMA_PRES HKO_LAT HKO_LON HKO_CAT HKO_WIND HKO_PRES NEWDELHI_LAT NEWDELHI_LON NEWDELHI_GRADE NEWDELHI_WIND NEWDELHI_PRES NEWDELHI_CI NEWDELHI_DP NEWDELHI_POCI REUNION_LAT REUNION_LON REUNION_TYPE REUNION_WIND REUNION_PRES REUNION_TNUM REUNION_CI REUNION_RMW REUNION_R34_NE REUNION_R34_SE REUNION_R34_SW REUNION_R34_NW REUNION_R50_NE REUNION_R50_SE REUNION_R50_SW REUNION_R50_NW REUNION_R64_NE REUNION_R64_SE REUNION_R64_SW REUNION_R64_NW BOM_LAT BOM_LON BOM_TYPE BOM_WIND BOM_PRES BOM_TNUM BOM_CI BOM_RMW BOM_R34_NE BOM_R34_SE BOM_R34_SW BOM_R34_NW BOM_R50_NE BOM_R50_SE BOM_R50_SW BOM_R50_NW BOM_R64_NE BOM_R64_SE BOM_R64_SW BOM_R64_NW BOM_ROCI BOM_POCI BOM_EYE BOM_POS_METHOD BOM_PRES_METHOD NADI_LAT NADI_LON NADI_CAT NADI_WIND NADI_PRES WELLINGTON_LAT WELLINGTON_LON WELLINGTON_WIND WELLINGTON_PRES DS824_LAT DS824_LON DS824_STAGE DS824_WIND DS824_PRES TD9636_LAT TD9636_LON TD9636_STAGE TD9636_WIND TD9636_PRES TD9635_LAT TD9635_LON TD9635_WIND TD9635_PRES TD9635_ROCI NEUMANN_LAT NEUMANN_LON NEUMANN_CLASS NEUMANN_WIND NEUMANN_PRES MLC_LAT MLC_LON MLC_CLASS MLC_WIND MLC_PRES USA_GUST BOM_GUST BOM_GUST_PER REUNION_GUST REUNION_GUST_PER USA_SEAHGT USA_SEARAD_NE USA_SEARAD_SE USA_SEARAD_SW USA_SEARAD_NW STORM_SPEED STORM_DIR
1942240N20132 1942 44 WP MM NOT_NAMED 1942-08-27 21:00:00 NR 19.5000 131.800 main 1006 976 __________O___ -1 19.5000 131.800 7 6 295
1942240N20132 1942 44 WP MM NOT_NAMED 1942-08-28 00:00:00 NR 19.6319 131.498 main 976 948 __________P___ -1 19.6319 131.498 7 6 296
1942240N20132 1942 44 WP MM NOT_NAMED 1942-08-28 03:00:00 NR 19.7708 131.207 main 948 929 __________P___ -1 19.7708 131.207 7 6 299
1942240N20132 1942 44 WP MM NOT_NAMED 1942-08-28 06:00:00 NR 19.9243 130.938 main 918 901 __________P___ -1 19.9243 130.938 7 6 305
1942240N20132 1942 44 WP MM NOT_NAMED 1942-08-28 09:00:00 NR 20.1000 130.700 main 901 886 __________O___ -1 20.1000 130.700 4 6 313
1942240N20132 1942 44 WP MM NOT_NAMED 1942-08-28 12:00:00 NR 20.3044 130.509 main 886 878 __________P___ -1 20.3044 130.509 4 5 327
1942240N20132 1942 44 WP MM NOT_NAMED 1942-08-28 15:00:00 NR 20.5391 130.391 main 881 881 __________P___ -1 20.5391 130.391 4 5 346
1942240N20132 1942 44 WP MM NOT_NAMED 1942-08-28 18:00:00 NR 20.8042 130.378 main 889 889 __________P___ -1 20.8042 130.378 4 6 11
1942240N20132 1942 44 WP MM NOT_NAMED 1942-08-28 21:00:00 NR 21.1000 130.500 main 909 909 __________O___ -1 21.1000 130.500 4 7 35
1942240N20132 1942 44 WP MM NOT_NAMED 1942-08-29 00:00:00 NR 21.3982 130.832 main 949 949 __________P___ -1 21.3982 130.832 4 10 49
1942240N20132 1942 44 WP MM NOT_NAMED 1942-08-29 03:00:00 NR 21.7270 131.288 main 1009 998 __________P___ -1 21.7270 131.288 4 11 52
1942240N20132 1942 44 WP MM NOT_NAMED 1942-08-29 06:00:00 NR 22.0921 131.775 main 1000 960 __________P___ -1 22.0921 131.775 4 11 48
1942240N20132 1942 44 WP MM NOT_NAMED 1942-08-29 09:00:00 NR 22.5000 132.200 main 960 920 __________O___ -1 22.5000 132.200 4 10 37
1942240N20132 1942 44 WP MM NOT_NAMED 1942-08-29 12:00:00 NR 22.8955 132.442 main 920 880 __________P___ -1 22.8955 132.442 4 9 24
1942240N20132 1942 44 WP MM NOT_NAMED 1942-08-29 15:00:00 NR 23.3420 132.606 main 880 827 __________P___ -1 23.3420 132.606 4 10 15
1942240N20132 1942 44 WP MM NOT_NAMED 1942-08-29 18:00:00 NR 23.8676 132.717 main 816 754 __________P___ -1 23.8676 132.717 4 12 9
1942240N20132 1942 44 WP MM NOT_NAMED 1942-08-29 21:00:00 NR 24.5000 132.800 main 754 682 __________O___ -1 24.5000 132.800 4 14 7
1942240N20132 1942 44 WP MM NOT_NAMED 1942-08-30 00:00:00 NR 25.2673 132.912 main 671 591 __________P___ -1 25.2673 132.912 4 17 6
1942240N20132 1942 44 WP MM NOT_NAMED 1942-08-30 03:00:00 NR 26.1378 133.002 main 591 503 __________P___ -1 26.1378 133.002 4 18 4
1942240N20132 1942 44 WP MM NOT_NAMED 1942-08-30 06:00:00 NR 27.0643 133.065 main 493 407 __________P___ -1 27.0643 133.065 4 19 3
1942240N20132 1942 44 WP MM NOT_NAMED 1942-08-30 09:00:00 NR 28.0000 133.100 main 407 328 __________O___ -1 28.0000 133.100 4 18 359
1942240N20132 1942 44 WP MM NOT_NAMED 1942-08-30 12:00:00 NR 28.8138 133.019 main 328 246 __________P___ -1 28.8138 133.019 4 17 355
1942240N20132 1942 44 WP MM NOT_NAMED 1942-08-30 15:00:00 NR 29.6368 132.922 main 246 174 __________P___ -1 29.6368 132.922 4 17 356
1942240N20132 1942 44 WP MM NOT_NAMED 1942-08-30 18:00:00 NR 30.5163 132.888 main 174 144 __________P___ -1 30.5163 132.888 4 19 2
1942240N20132 1942 44 WP MM NOT_NAMED 1942-08-30 21:00:00 NR 31.5000 133.000 main 133 28 __________O___ -1 31.5000 133.000 4 23 10
1942240N20132 1942 44 WP MM NOT_NAMED 1942-08-31 00:00:00 NR 32.7435 133.339 main 28 0 __________P___ -1 32.7435 133.339 4 27 15
1942240N20132 1942 44 WP MM NOT_NAMED 1942-08-31 03:00:00 NR 34.0749 133.847 main 0 0 __________P___ -1 34.0749 133.847 4 28 20
1942240N20132 1942 44 WP MM NOT_NAMED 1942-08-31 06:00:00 NR 35.3687 134.483 main 0 0 __________P___ -1 35.3687 134.483 4 27 24
1942240N20132 1942 44 WP MM NOT_NAMED 1942-08-31 09:00:00 NR 36.5000 135.200 main 83 71 __________O___ -1 36.5000 135.200 7 23 30
1942240N20132 1942 44 WP MM NOT_NAMED 1942-08-31 12:00:00 NR 37.3777 135.951 main 65 51 __________P___ -1 37.3777 135.951 7 20 38
1942240N20132 1942 44 WP MM NOT_NAMED 1942-08-31 15:00:00 NR 38.0401 136.721 main 67 67 __________P___ -1 38.0401 136.721 7 17 46
1942240N20132 1942 44 WP MM NOT_NAMED 1942-08-31 18:00:00 NR 38.5576 137.505 main 136 112 __________P___ -1 38.5576 137.505 7 16 52
1942240N20132 1942 44 WP MM NOT_NAMED 1942-08-31 21:00:00 NR 39.0000 138.300 main 112 __________O___ -1 39.0000 138.300 7 15 54

デジタル台風データ・検索

IBTrACS Databaseについて

本データベースは、米国NOAAが公開する1842年以降の世界の熱帯低気圧のベストトラックデータアーカイブInternational Best Track Archive for Climate Stewardship (IBTrACS)を、ウェブで閲覧しやすい形式に変換したものです。

最終更新日:2021-10-21